sensor_id;sensor_type;location;lat;lon;timestamp;temperature;humidity
51725;DHT22;37801;53.224;6.552;2022-10-16T00:01:59;12.30;99.90
51725;DHT22;37801;53.224;6.552;2022-10-16T00:04:25;12.30;99.90
51725;DHT22;37801;53.224;6.552;2022-10-16T00:06:51;12.30;99.90
51725;DHT22;37801;53.224;6.552;2022-10-16T00:09:16;12.30;99.90
51725;DHT22;37801;53.224;6.552;2022-10-16T00:11:42;12.30;99.90
51725;DHT22;37801;53.224;6.552;2022-10-16T00:14:12;12.30;99.90
51725;DHT22;37801;53.224;6.552;2022-10-16T00:16:38;12.30;99.90
51725;DHT22;37801;53.224;6.552;2022-10-16T00:19:04;12.30;99.90
51725;DHT22;37801;53.224;6.552;2022-10-16T00:21:31;12.30;99.90
51725;DHT22;37801;53.224;6.552;2022-10-16T00:24:00;12.30;99.90
51725;DHT22;37801;53.224;6.552;2022-10-16T00:26:28;12.30;99.90
51725;DHT22;37801;53.224;6.552;2022-10-16T00:28:54;12.30;99.90
51725;DHT22;37801;53.224;6.552;2022-10-16T00:31:22;12.30;99.90
51725;DHT22;37801;53.224;6.552;2022-10-16T00:33:48;12.30;99.90
51725;DHT22;37801;53.224;6.552;2022-10-16T00:36:17;12.30;99.90
51725;DHT22;37801;53.224;6.552;2022-10-16T00:38:43;12.30;99.90
51725;DHT22;37801;53.224;6.552;2022-10-16T00:41:15;12.30;99.90
51725;DHT22;37801;53.224;6.552;2022-10-16T00:46:24;12.30;99.90
51725;DHT22;37801;53.224;6.552;2022-10-16T00:49:06;12.30;99.90
51725;DHT22;37801;53.224;6.552;2022-10-16T00:51:45;12.30;99.90
51725;DHT22;37801;53.224;6.552;2022-10-16T00:54:14;12.40;99.90
51725;DHT22;37801;53.224;6.552;2022-10-16T00:56:41;12.30;99.90
51725;DHT22;37801;53.224;6.552;2022-10-16T00:59:16;12.30;99.90
51725;DHT22;37801;53.224;6.552;2022-10-16T01:01:43;12.30;99.90
51725;DHT22;37801;53.224;6.552;2022-10-16T01:04:09;12.30;99.90
51725;DHT22;37801;53.224;6.552;2022-10-16T01:10:04;12.30;99.90
51725;DHT22;37801;53.224;6.552;2022-10-16T01:12:53;12.30;99.90
51725;DHT22;37801;53.224;6.552;2022-10-16T01:20:50;12.30;99.90
51725;DHT22;37801;53.224;6.552;2022-10-16T01:29:05;12.30;99.90
51725;DHT22;37801;53.224;6.552;2022-10-16T01:31:35;12.30;99.90
51725;DHT22;37801;53.224;6.552;2022-10-16T01:34:22;12.30;99.90
51725;DHT22;37801;53.224;6.552;2022-10-16T01:36:57;12.30;99.90
51725;DHT22;37801;53.224;6.552;2022-10-16T01:39:29;12.20;99.90
51725;DHT22;37801;53.224;6.552;2022-10-16T01:42:04;12.30;99.90
51725;DHT22;37801;53.224;6.552;2022-10-16T01:44:33;12.30;99.90
51725;DHT22;37801;53.224;6.552;2022-10-16T01:47:02;12.30;99.90
51725;DHT22;37801;53.224;6.552;2022-10-16T01:49:33;12.30;99.90
51725;DHT22;37801;53.224;6.552;2022-10-16T01:52:02;12.20;99.90
51725;DHT22;37801;53.224;6.552;2022-10-16T01:54:30;12.30;99.90
51725;DHT22;37801;53.224;6.552;2022-10-16T01:56:58;12.30;99.90
51725;DHT22;37801;53.224;6.552;2022-10-16T01:59:26;12.30;99.90
51725;DHT22;37801;53.224;6.552;2022-10-16T02:01:58;12.30;99.90
51725;DHT22;37801;53.224;6.552;2022-10-16T02:04:40;12.30;99.90
51725;DHT22;37801;53.224;6.552;2022-10-16T02:07:08;12.40;99.90
51725;DHT22;37801;53.224;6.552;2022-10-16T02:09:34;12.40;99.90
51725;DHT22;37801;53.224;6.552;2022-10-16T02:12:06;12.40;99.90
51725;DHT22;37801;53.224;6.552;2022-10-16T02:14:34;12.40;99.90
51725;DHT22;37801;53.224;6.552;2022-10-16T02:17:14;12.40;99.90
51725;DHT22;37801;53.224;6.552;2022-10-16T02:19:41;12.50;99.90
51725;DHT22;37801;53.224;6.552;2022-10-16T02:22:09;12.50;99.90
51725;DHT22;37801;53.224;6.552;2022-10-16T02:25:06;12.50;99.90
51725;DHT22;37801;53.224;6.552;2022-10-16T02:27:39;12.50;99.90
51725;DHT22;37801;53.224;6.552;2022-10-16T02:32:45;12.50;99.90
51725;DHT22;37801;53.224;6.552;2022-10-16T02:35:12;12.60;99.90
51725;DHT22;37801;53.224;6.552;2022-10-16T02:37:38;12.60;99.90
51725;DHT22;37801;53.224;6.552;2022-10-16T02:40:06;12.60;99.90
51725;DHT22;37801;53.224;6.552;2022-10-16T02:42:37;12.60;99.90
51725;DHT22;37801;53.224;6.552;2022-10-16T02:45:04;12.60;99.90
51725;DHT22;37801;53.224;6.552;2022-10-16T02:47:30;12.60;99.90
51725;DHT22;37801;53.224;6.552;2022-10-16T02:49:55;12.60;99.90
51725;DHT22;37801;53.224;6.552;2022-10-16T02:52:21;12.60;99.90
51725;DHT22;37801;53.224;6.552;2022-10-16T02:54:47;12.60;99.90
51725;DHT22;37801;53.224;6.552;2022-10-16T02:57:13;12.60;99.90
51725;DHT22;37801;53.224;6.552;2022-10-16T02:59:38;12.70;99.90
51725;DHT22;37801;53.224;6.552;2022-10-16T03:02:04;12.60;99.90
51725;DHT22;37801;53.224;6.552;2022-10-16T03:04:30;12.60;99.90
51725;DHT22;37801;53.224;6.552;2022-10-16T03:06:56;12.60;99.90
51725;DHT22;37801;53.224;6.552;2022-10-16T03:09:22;12.60;99.90
51725;DHT22;37801;53.224;6.552;2022-10-16T03:11:47;12.60;99.90
51725;DHT22;37801;53.224;6.552;2022-10-16T03:14:13;12.60;99.90
51725;DHT22;37801;53.224;6.552;2022-10-16T03:16:39;12.60;99.90
51725;DHT22;37801;53.224;6.552;2022-10-16T03:19:04;12.50;99.90
51725;DHT22;37801;53.224;6.552;2022-10-16T03:21:30;12.60;99.90
51725;DHT22;37801;53.224;6.552;2022-10-16T03:23:56;12.50;99.90
51725;DHT22;37801;53.224;6.552;2022-10-16T03:26:21;12.50;99.90
51725;DHT22;37801;53.224;6.552;2022-10-16T03:28:47;12.50;99.90
51725;DHT22;37801;53.224;6.552;2022-10-16T03:31:13;12.50;99.90
51725;DHT22;37801;53.224;6.552;2022-10-16T03:33:38;12.50;99.90
51725;DHT22;37801;53.224;6.552;2022-10-16T03:36:04;12.50;99.90
51725;DHT22;37801;53.224;6.552;2022-10-16T03:38:30;12.50;99.90
51725;DHT22;37801;53.224;6.552;2022-10-16T03:40:56;12.50;99.90
51725;DHT22;37801;53.224;6.552;2022-10-16T03:43:21;12.50;99.90
51725;DHT22;37801;53.224;6.552;2022-10-16T03:45:47;12.50;99.90
51725;DHT22;37801;53.224;6.552;2022-10-16T03:48:13;12.50;99.90
51725;DHT22;37801;53.224;6.552;2022-10-16T03:50:38;12.50;99.90
51725;DHT22;37801;53.224;6.552;2022-10-16T03:53:04;12.50;99.90
51725;DHT22;37801;53.224;6.552;2022-10-16T03:55:30;12.50;99.90
51725;DHT22;37801;53.224;6.552;2022-10-16T03:57:55;12.50;99.90
51725;DHT22;37801;53.224;6.552;2022-10-16T04:00:21;12.50;99.90
51725;DHT22;37801;53.224;6.552;2022-10-16T04:02:47;12.50;99.90
51725;DHT22;37801;53.224;6.552;2022-10-16T04:05:13;12.50;99.90
51725;DHT22;37801;53.224;6.552;2022-10-16T04:07:39;12.40;99.90
51725;DHT22;37801;53.224;6.552;2022-10-16T04:10:05;12.40;99.90
51725;DHT22;37801;53.224;6.552;2022-10-16T04:12:31;12.40;99.90
51725;DHT22;37801;53.224;6.552;2022-10-16T04:14:56;12.30;99.90
51725;DHT22;37801;53.224;6.552;2022-10-16T04:17:22;12.30;99.90
51725;DHT22;37801;53.224;6.552;2022-10-16T04:19:48;12.30;99.90
51725;DHT22;37801;53.224;6.552;2022-10-16T04:22:13;12.30;99.90
51725;DHT22;37801;53.224;6.552;2022-10-16T04:24:40;12.30;99.90
51725;DHT22;37801;53.224;6.552;2022-10-16T04:27:05;12.20;99.90
51725;DHT22;37801;53.224;6.552;2022-10-16T04:29:31;12.20;99.90
51725;DHT22;37801;53.224;6.552;2022-10-16T04:31:57;12.20;99.90
51725;DHT22;37801;53.224;6.552;2022-10-16T04:34:22;12.20;99.90
51725;DHT22;37801;53.224;6.552;2022-10-16T04:36:48;12.20;99.90
51725;DHT22;37801;53.224;6.552;2022-10-16T04:39:15;12.20;99.90
51725;DHT22;37801;53.224;6.552;2022-10-16T04:41:40;12.20;99.90
51725;DHT22;37801;53.224;6.552;2022-10-16T04:44:06;12.20;99.90
51725;DHT22;37801;53.224;6.552;2022-10-16T04:46:32;12.20;99.90
51725;DHT22;37801;53.224;6.552;2022-10-16T04:48:58;12.20;99.90
51725;DHT22;37801;53.224;6.552;2022-10-16T04:51:23;12.30;99.90
51725;DHT22;37801;53.224;6.552;2022-10-16T04:53:51;12.30;99.90
51725;DHT22;37801;53.224;6.552;2022-10-16T04:56:17;12.30;99.90
51725;DHT22;37801;53.224;6.552;2022-10-16T04:58:42;12.40;99.90
51725;DHT22;37801;53.224;6.552;2022-10-16T05:01:08;12.40;99.90
51725;DHT22;37801;53.224;6.552;2022-10-16T05:03:34;12.40;99.90
51725;DHT22;37801;53.224;6.552;2022-10-16T05:05:59;12.40;99.90
51725;DHT22;37801;53.224;6.552;2022-10-16T05:08:25;12.40;99.90
51725;DHT22;37801;53.224;6.552;2022-10-16T05:10:51;12.50;99.90
51725;DHT22;37801;53.224;6.552;2022-10-16T05:13:18;12.40;99.90
51725;DHT22;37801;53.224;6.552;2022-10-16T05:15:47;12.40;99.90
51725;DHT22;37801;53.224;6.552;2022-10-16T05:18:13;12.50;99.90
51725;DHT22;37801;53.224;6.552;2022-10-16T05:20:40;12.50;99.90
51725;DHT22;37801;53.224;6.552;2022-10-16T05:23:06;12.50;99.90
51725;DHT22;37801;53.224;6.552;2022-10-16T05:25:32;12.50;99.90
51725;DHT22;37801;53.224;6.552;2022-10-16T05:27:57;12.50;99.90
51725;DHT22;37801;53.224;6.552;2022-10-16T05:30:23;12.50;99.90
51725;DHT22;37801;53.224;6.552;2022-10-16T05:32:50;12.50;99.90
51725;DHT22;37801;53.224;6.552;2022-10-16T05:35:17;12.50;99.90
51725;DHT22;37801;53.224;6.552;2022-10-16T05:37:43;12.50;99.90
51725;DHT22;37801;53.224;6.552;2022-10-16T05:40:09;12.50;99.90
51725;DHT22;37801;53.224;6.552;2022-10-16T05:42:35;12.50;99.90
51725;DHT22;37801;53.224;6.552;2022-10-16T05:45:01;12.50;99.90
51725;DHT22;37801;53.224;6.552;2022-10-16T05:47:27;12.50;99.90
51725;DHT22;37801;53.224;6.552;2022-10-16T05:49:52;12.50;99.90
51725;DHT22;37801;53.224;6.552;2022-10-16T05:52:18;12.50;99.90
51725;DHT22;37801;53.224;6.552;2022-10-16T05:54:44;12.50;99.90
51725;DHT22;37801;53.224;6.552;2022-10-16T05:57:10;12.50;99.90
51725;DHT22;37801;53.224;6.552;2022-10-16T05:59:35;12.50;99.90
51725;DHT22;37801;53.224;6.552;2022-10-16T06:02:02;12.50;99.90
51725;DHT22;37801;53.224;6.552;2022-10-16T06:04:28;12.50;99.90
51725;DHT22;37801;53.224;6.552;2022-10-16T06:06:53;12.50;99.90
51725;DHT22;37801;53.224;6.552;2022-10-16T06:09:19;12.50;99.90
51725;DHT22;37801;53.224;6.552;2022-10-16T06:11:45;12.50;99.90
51725;DHT22;37801;53.224;6.552;2022-10-16T06:14:11;12.50;99.90
51725;DHT22;37801;53.224;6.552;2022-10-16T06:16:37;12.50;99.90
51725;DHT22;37801;53.224;6.552;2022-10-16T06:19:03;12.40;99.90
51725;DHT22;37801;53.224;6.552;2022-10-16T06:21:32;12.40;99.90
51725;DHT22;37801;53.224;6.552;2022-10-16T06:23:58;12.40;99.90
51725;DHT22;37801;53.224;6.552;2022-10-16T06:26:26;12.50;99.90
51725;DHT22;37801;53.224;6.552;2022-10-16T06:28:55;12.50;99.90
51725;DHT22;37801;53.224;6.552;2022-10-16T06:31:21;12.50;99.90
51725;DHT22;37801;53.224;6.552;2022-10-16T06:33:50;12.50;99.90
51725;DHT22;37801;53.224;6.552;2022-10-16T06:36:17;12.60;99.90
51725;DHT22;37801;53.224;6.552;2022-10-16T06:38:43;12.60;99.90
51725;DHT22;37801;53.224;6.552;2022-10-16T06:41:18;12.60;99.90
51725;DHT22;37801;53.224;6.552;2022-10-16T06:43:44;12.70;99.90
51725;DHT22;37801;53.224;6.552;2022-10-16T06:46:15;12.70;99.90
51725;DHT22;37801;53.224;6.552;2022-10-16T06:48:42;12.70;99.90
51725;DHT22;37801;53.224;6.552;2022-10-16T06:51:16;12.70;99.90
51725;DHT22;37801;53.224;6.552;2022-10-16T06:53:45;12.70;99.90
51725;DHT22;37801;53.224;6.552;2022-10-16T06:56:13;12.70;99.90
51725;DHT22;37801;53.224;6.552;2022-10-16T06:58:39;12.80;99.90
51725;DHT22;37801;53.224;6.552;2022-10-16T07:01:05;12.80;99.90
51725;DHT22;37801;53.224;6.552;2022-10-16T07:03:32;12.80;99.90
51725;DHT22;37801;53.224;6.552;2022-10-16T07:06:02;12.80;99.90
51725;DHT22;37801;53.224;6.552;2022-10-16T07:08:34;12.90;99.90
51725;DHT22;37801;53.224;6.552;2022-10-16T07:11:01;12.90;99.90
51725;DHT22;37801;53.224;6.552;2022-10-16T07:13:27;12.90;99.90
51725;DHT22;37801;53.224;6.552;2022-10-16T07:15:53;12.90;99.90
51725;DHT22;37801;53.224;6.552;2022-10-16T07:18:19;12.90;99.90
51725;DHT22;37801;53.224;6.552;2022-10-16T07:20:44;13.00;99.90
51725;DHT22;37801;53.224;6.552;2022-10-16T07:23:10;13.00;99.90
51725;DHT22;37801;53.224;6.552;2022-10-16T07:25:36;13.00;99.90
51725;DHT22;37801;53.224;6.552;2022-10-16T07:28:01;13.00;99.90
51725;DHT22;37801;53.224;6.552;2022-10-16T07:30:27;13.10;99.90
51725;DHT22;37801;53.224;6.552;2022-10-16T07:32:53;13.10;99.90
51725;DHT22;37801;53.224;6.552;2022-10-16T07:35:18;13.10;99.90
51725;DHT22;37801;53.224;6.552;2022-10-16T07:37:45;13.20;99.90
51725;DHT22;37801;53.224;6.552;2022-10-16T07:40:11;13.20;99.90
51725;DHT22;37801;53.224;6.552;2022-10-16T07:42:37;13.20;99.90
51725;DHT22;37801;53.224;6.552;2022-10-16T07:45:03;13.20;99.90
51725;DHT22;37801;53.224;6.552;2022-10-16T07:47:29;13.20;99.90
51725;DHT22;37801;53.224;6.552;2022-10-16T07:49:54;13.20;99.90
51725;DHT22;37801;53.224;6.552;2022-10-16T07:52:20;13.20;99.90
51725;DHT22;37801;53.224;6.552;2022-10-16T07:54:46;13.20;99.90
51725;DHT22;37801;53.224;6.552;2022-10-16T07:57:12;13.20;99.90
51725;DHT22;37801;53.224;6.552;2022-10-16T07:59:44;13.20;99.90
51725;DHT22;37801;53.224;6.552;2022-10-16T08:02:09;13.10;99.90
51725;DHT22;37801;53.224;6.552;2022-10-16T08:04:35;13.10;99.90
51725;DHT22;37801;53.224;6.552;2022-10-16T08:07:01;13.10;99.90
51725;DHT22;37801;53.224;6.552;2022-10-16T08:09:26;13.00;99.90
51725;DHT22;37801;53.224;6.552;2022-10-16T08:11:52;13.00;99.90
51725;DHT22;37801;53.224;6.552;2022-10-16T08:14:18;12.90;99.90
51725;DHT22;37801;53.224;6.552;2022-10-16T08:16:43;12.90;99.90
51725;DHT22;37801;53.224;6.552;2022-10-16T08:19:09;12.90;99.90
51725;DHT22;37801;53.224;6.552;2022-10-16T08:21:35;12.90;99.90
51725;DHT22;37801;53.224;6.552;2022-10-16T08:24:00;12.80;99.90
51725;DHT22;37801;53.224;6.552;2022-10-16T08:26:26;12.90;99.90
51725;DHT22;37801;53.224;6.552;2022-10-16T08:28:53;12.90;99.90
51725;DHT22;37801;53.224;6.552;2022-10-16T08:31:18;13.00;99.90
51725;DHT22;37801;53.224;6.552;2022-10-16T08:33:45;13.10;99.90
51725;DHT22;37801;53.224;6.552;2022-10-16T08:36:13;13.10;99.90
51725;DHT22;37801;53.224;6.552;2022-10-16T08:38:39;13.30;99.90
51725;DHT22;37801;53.224;6.552;2022-10-16T08:44:07;13.50;99.90
51725;DHT22;37801;53.224;6.552;2022-10-16T08:46:43;13.50;99.90
51725;DHT22;37801;53.224;6.552;2022-10-16T08:49:13;13.60;99.90
51725;DHT22;37801;53.224;6.552;2022-10-16T08:51:39;13.60;99.90
51725;DHT22;37801;53.224;6.552;2022-10-16T08:54:31;13.60;99.90
51725;DHT22;37801;53.224;6.552;2022-10-16T08:57:12;13.70;99.90
51725;DHT22;37801;53.224;6.552;2022-10-16T08:59:38;13.80;99.90
51725;DHT22;37801;53.224;6.552;2022-10-16T09:02:24;13.80;99.90
51725;DHT22;37801;53.224;6.552;2022-10-16T09:05:21;13.90;99.90
51725;DHT22;37801;53.224;6.552;2022-10-16T09:08:11;14.00;99.90
51725;DHT22;37801;53.224;6.552;2022-10-16T09:11:17;14.00;99.90
51725;DHT22;37801;53.224;6.552;2022-10-16T09:16:43;14.10;99.90
51725;DHT22;37801;53.224;6.552;2022-10-16T09:19:15;14.10;99.90
51725;DHT22;37801;53.224;6.552;2022-10-16T09:21:45;14.10;99.90
51725;DHT22;37801;53.224;6.552;2022-10-16T09:24:19;14.20;99.90
51725;DHT22;37801;53.224;6.552;2022-10-16T09:26:46;14.20;99.90
51725;DHT22;37801;53.224;6.552;2022-10-16T09:29:14;14.30;99.90
51725;DHT22;37801;53.224;6.552;2022-10-16T09:31:40;14.40;99.90
51725;DHT22;37801;53.224;6.552;2022-10-16T09:36:48;14.50;99.90
51725;DHT22;37801;53.224;6.552;2022-10-16T09:39:15;14.60;99.90
51725;DHT22;37801;53.224;6.552;2022-10-16T09:41:43;14.70;99.90
51725;DHT22;37801;53.224;6.552;2022-10-16T09:44:26;14.70;99.90
51725;DHT22;37801;53.224;6.552;2022-10-16T09:47:03;14.80;99.90
51725;DHT22;37801;53.224;6.552;2022-10-16T09:49:29;14.80;99.90
51725;DHT22;37801;53.224;6.552;2022-10-16T09:52:14;14.70;99.90
51725;DHT22;37801;53.224;6.552;2022-10-16T09:57:22;14.70;99.90
51725;DHT22;37801;53.224;6.552;2022-10-16T09:59:52;14.60;99.90
51725;DHT22;37801;53.224;6.552;2022-10-16T10:02:30;14.60;99.90
51725;DHT22;37801;53.224;6.552;2022-10-16T10:04:56;14.70;99.90
51725;DHT22;37801;53.224;6.552;2022-10-16T10:07:43;14.60;99.90
51725;DHT22;37801;53.224;6.552;2022-10-16T10:10:42;14.60;99.90
51725;DHT22;37801;53.224;6.552;2022-10-16T10:13:20;14.50;99.90
51725;DHT22;37801;53.224;6.552;2022-10-16T10:15:47;14.50;99.90
51725;DHT22;37801;53.224;6.552;2022-10-16T10:18:20;14.50;99.90
51725;DHT22;37801;53.224;6.552;2022-10-16T10:21:01;14.50;99.90
51725;DHT22;37801;53.224;6.552;2022-10-16T10:23:29;14.50;99.90
51725;DHT22;37801;53.224;6.552;2022-10-16T10:26:06;14.40;99.90
51725;DHT22;37801;53.224;6.552;2022-10-16T10:28:50;14.50;99.90
51725;DHT22;37801;53.224;6.552;2022-10-16T10:31:39;14.50;99.90
51725;DHT22;37801;53.224;6.552;2022-10-16T10:34:52;14.50;99.90
51725;DHT22;37801;53.224;6.552;2022-10-16T10:37:30;14.50;99.90
51725;DHT22;37801;53.224;6.552;2022-10-16T10:45:17;14.60;99.90
51725;DHT22;37801;53.224;6.552;2022-10-16T10:59:03;14.90;99.90
51725;DHT22;37801;53.224;6.552;2022-10-16T11:01:50;14.90;99.90
51725;DHT22;37801;53.224;6.552;2022-10-16T11:07:17;14.90;99.90
51725;DHT22;37801;53.224;6.552;2022-10-16T11:10:08;14.80;99.90
51725;DHT22;37801;53.224;6.552;2022-10-16T11:12:44;14.80;99.90
51725;DHT22;37801;53.224;6.552;2022-10-16T11:15:18;14.80;99.90
51725;DHT22;37801;53.224;6.552;2022-10-16T11:17:52;14.80;99.90
51725;DHT22;37801;53.224;6.552;2022-10-16T11:20:28;14.80;99.90
51725;DHT22;37801;53.224;6.552;2022-10-16T11:22:56;14.80;99.90
51725;DHT22;37801;53.224;6.552;2022-10-16T11:25:27;14.80;99.90
51725;DHT22;37801;53.224;6.552;2022-10-16T11:35:55;15.10;99.90
51725;DHT22;37801;53.224;6.552;2022-10-16T11:40:58;15.10;99.40
51725;DHT22;37801;53.224;6.552;2022-10-16T11:43:37;15.10;99.40
51725;DHT22;37801;53.224;6.552;2022-10-16T11:46:24;15.20;99.90
51725;DHT22;37801;53.224;6.552;2022-10-16T11:49:15;15.30;99.90
51725;DHT22;37801;53.224;6.552;2022-10-16T11:51:50;15.40;99.90
51725;DHT22;37801;53.224;6.552;2022-10-16T11:54:42;15.40;99.90
51725;DHT22;37801;53.224;6.552;2022-10-16T11:57:53;15.40;99.90
51725;DHT22;37801;53.224;6.552;2022-10-16T12:00:39;15.30;99.90
51725;DHT22;37801;53.224;6.552;2022-10-16T12:08:39;15.30;99.90
51725;DHT22;37801;53.224;6.552;2022-10-16T12:11:31;15.20;99.90
51725;DHT22;37801;53.224;6.552;2022-10-16T12:16:54;15.20;99.90
51725;DHT22;37801;53.224;6.552;2022-10-16T12:19:21;15.20;99.90
51725;DHT22;37801;53.224;6.552;2022-10-16T12:21:48;15.20;96.70
51725;DHT22;37801;53.224;6.552;2022-10-16T12:24:32;15.30;99.90
51725;DHT22;37801;53.224;6.552;2022-10-16T12:26:58;15.40;97.60
51725;DHT22;37801;53.224;6.552;2022-10-16T12:31:59;15.50;93.80
51725;DHT22;37801;53.224;6.552;2022-10-16T12:34:38;15.50;98.20
51725;DHT22;37801;53.224;6.552;2022-10-16T12:37:23;15.60;91.90
51725;DHT22;37801;53.224;6.552;2022-10-16T12:39:51;15.60;96.90
51725;DHT22;37801;53.224;6.552;2022-10-16T12:44:52;15.50;99.90
51725;DHT22;37801;53.224;6.552;2022-10-16T12:49:56;15.30;95.90
51725;DHT22;37801;53.224;6.552;2022-10-16T12:52:48;15.20;99.90
51725;DHT22;37801;53.224;6.552;2022-10-16T12:55:17;15.10;93.60
51725;DHT22;37801;53.224;6.552;2022-10-16T13:00:32;15.00;99.90
51725;DHT22;37801;53.224;6.552;2022-10-16T13:11:20;14.90;99.90
51725;DHT22;37801;53.224;6.552;2022-10-16T13:17:34;14.90;92.20
51725;DHT22;37801;53.224;6.552;2022-10-16T13:23:01;14.90;99.90
51725;DHT22;37801;53.224;6.552;2022-10-16T13:26:01;14.80;91.80
51725;DHT22;37801;53.224;6.552;2022-10-16T13:28:33;14.80;99.00
51725;DHT22;37801;53.224;6.552;2022-10-16T13:31:01;14.70;99.90
51725;DHT22;37801;53.224;6.552;2022-10-16T13:33:33;14.70;90.00
51725;DHT22;37801;53.224;6.552;2022-10-16T13:36:00;14.70;99.90
51725;DHT22;37801;53.224;6.552;2022-10-16T13:38:28;14.60;92.80
51725;DHT22;37801;53.224;6.552;2022-10-16T13:41:00;14.60;96.50
51725;DHT22;37801;53.224;6.552;2022-10-16T13:43:36;14.60;99.90
51725;DHT22;37801;53.224;6.552;2022-10-16T13:46:05;14.60;90.20
51725;DHT22;37801;53.224;6.552;2022-10-16T13:48:32;14.60;98.40
51725;DHT22;37801;53.224;6.552;2022-10-16T13:51:18;14.60;90.20
51725;DHT22;37801;53.224;6.552;2022-10-16T13:53:45;14.60;99.90
51725;DHT22;37801;53.224;6.552;2022-10-16T13:56:16;14.60;99.90
51725;DHT22;37801;53.224;6.552;2022-10-16T13:58:43;14.60;99.90
51725;DHT22;37801;53.224;6.552;2022-10-16T14:01:19;14.60;99.90
51725;DHT22;37801;53.224;6.552;2022-10-16T14:03:46;14.60;99.90
51725;DHT22;37801;53.224;6.552;2022-10-16T14:06:17;14.50;99.90
51725;DHT22;37801;53.224;6.552;2022-10-16T14:09:09;14.50;99.90
51725;DHT22;37801;53.224;6.552;2022-10-16T14:11:46;14.50;99.90
51725;DHT22;37801;53.224;6.552;2022-10-16T14:14:14;14.50;94.50
51725;DHT22;37801;53.224;6.552;2022-10-16T14:16:42;14.60;99.70
51725;DHT22;37801;53.224;6.552;2022-10-16T14:19:28;14.60;94.50
51725;DHT22;37801;53.224;6.552;2022-10-16T14:21:56;14.60;98.10
51725;DHT22;37801;53.224;6.552;2022-10-16T14:24:40;14.60;99.90
51725;DHT22;37801;53.224;6.552;2022-10-16T14:27:30;14.60;99.90
51725;DHT22;37801;53.224;6.552;2022-10-16T14:30:15;14.60;99.90
51725;DHT22;37801;53.224;6.552;2022-10-16T14:32:56;14.60;99.90
51725;DHT22;37801;53.224;6.552;2022-10-16T14:35:36;14.50;99.90
51725;DHT22;37801;53.224;6.552;2022-10-16T14:38:04;14.50;99.90
51725;DHT22;37801;53.224;6.552;2022-10-16T14:40:33;14.40;99.90
51725;DHT22;37801;53.224;6.552;2022-10-16T14:43:00;14.40;99.90
51725;DHT22;37801;53.224;6.552;2022-10-16T14:45:29;14.30;99.90
51725;DHT22;37801;53.224;6.552;2022-10-16T14:48:15;14.30;99.90
51725;DHT22;37801;53.224;6.552;2022-10-16T14:50:42;14.20;99.90
51725;DHT22;37801;53.224;6.552;2022-10-16T14:53:11;14.20;99.90
51725;DHT22;37801;53.224;6.552;2022-10-16T14:55:38;14.20;99.90
51725;DHT22;37801;53.224;6.552;2022-10-16T14:58:04;14.10;99.90
51725;DHT22;37801;53.224;6.552;2022-10-16T15:00:30;14.10;99.90
51725;DHT22;37801;53.224;6.552;2022-10-16T15:02:56;14.00;99.90
51725;DHT22;37801;53.224;6.552;2022-10-16T15:05:27;14.00;99.90
51725;DHT22;37801;53.224;6.552;2022-10-16T15:07:54;14.00;99.90
51725;DHT22;37801;53.224;6.552;2022-10-16T15:10:22;14.00;99.90
51725;DHT22;37801;53.224;6.552;2022-10-16T15:12:49;14.00;99.90
51725;DHT22;37801;53.224;6.552;2022-10-16T15:17:59;13.90;99.90
51725;DHT22;37801;53.224;6.552;2022-10-16T15:20:32;13.90;99.90
51725;DHT22;37801;53.224;6.552;2022-10-16T15:23:03;13.90;99.90
51725;DHT22;37801;53.224;6.552;2022-10-16T15:25:43;13.90;99.90
51725;DHT22;37801;53.224;6.552;2022-10-16T15:28:10;13.90;99.90
51725;DHT22;37801;53.224;6.552;2022-10-16T15:30:37;13.90;99.90
51725;DHT22;37801;53.224;6.552;2022-10-16T15:33:04;13.90;99.90
51725;DHT22;37801;53.224;6.552;2022-10-16T15:35:30;13.80;99.90
51725;DHT22;37801;53.224;6.552;2022-10-16T15:37:56;13.80;99.90
51725;DHT22;37801;53.224;6.552;2022-10-16T15:40:22;13.80;99.90
51725;DHT22;37801;53.224;6.552;2022-10-16T15:42:48;13.70;99.90
51725;DHT22;37801;53.224;6.552;2022-10-16T15:45:15;13.70;99.90
51725;DHT22;37801;53.224;6.552;2022-10-16T15:47:41;13.70;99.90
51725;DHT22;37801;53.224;6.552;2022-10-16T15:50:10;13.60;99.90
51725;DHT22;37801;53.224;6.552;2022-10-16T15:52:37;13.60;99.90
51725;DHT22;37801;53.224;6.552;2022-10-16T15:55:08;13.60;99.90
51725;DHT22;37801;53.224;6.552;2022-10-16T15:57:35;13.60;99.90
51725;DHT22;37801;53.224;6.552;2022-10-16T16:00:08;13.50;99.90
51725;DHT22;37801;53.224;6.552;2022-10-16T16:02:34;13.50;99.90
51725;DHT22;37801;53.224;6.552;2022-10-16T16:05:00;13.40;99.90
51725;DHT22;37801;53.224;6.552;2022-10-16T16:07:27;13.40;99.90
51725;DHT22;37801;53.224;6.552;2022-10-16T16:09:53;13.40;99.90
51725;DHT22;37801;53.224;6.552;2022-10-16T16:12:19;13.30;99.90
51725;DHT22;37801;53.224;6.552;2022-10-16T16:14:44;13.30;99.90
51725;DHT22;37801;53.224;6.552;2022-10-16T16:17:11;13.30;99.90
51725;DHT22;37801;53.224;6.552;2022-10-16T16:19:37;13.20;99.90
51725;DHT22;37801;53.224;6.552;2022-10-16T16:22:03;13.20;99.90
51725;DHT22;37801;53.224;6.552;2022-10-16T16:24:28;13.10;99.90
51725;DHT22;37801;53.224;6.552;2022-10-16T16:26:54;13.10;99.90
51725;DHT22;37801;53.224;6.552;2022-10-16T16:29:20;13.00;99.90
51725;DHT22;37801;53.224;6.552;2022-10-16T16:31:45;13.00;99.90
51725;DHT22;37801;53.224;6.552;2022-10-16T16:34:13;12.90;99.90
51725;DHT22;37801;53.224;6.552;2022-10-16T16:36:39;12.90;99.90
51725;DHT22;37801;53.224;6.552;2022-10-16T16:39:06;12.90;99.90
51725;DHT22;37801;53.224;6.552;2022-10-16T16:41:33;12.80;99.90
51725;DHT22;37801;53.224;6.552;2022-10-16T16:44:04;12.80;99.90
51725;DHT22;37801;53.224;6.552;2022-10-16T16:46:31;12.80;99.90
51725;DHT22;37801;53.224;6.552;2022-10-16T16:48:58;12.70;99.90
51725;DHT22;37801;53.224;6.552;2022-10-16T16:51:24;12.70;99.90
51725;DHT22;37801;53.224;6.552;2022-10-16T16:53:52;12.70;99.90
51725;DHT22;37801;53.224;6.552;2022-10-16T16:56:19;12.60;99.90
51725;DHT22;37801;53.224;6.552;2022-10-16T16:58:49;12.60;99.90
51725;DHT22;37801;53.224;6.552;2022-10-16T17:01:15;12.50;99.90
51725;DHT22;37801;53.224;6.552;2022-10-16T17:03:42;12.50;99.90
51725;DHT22;37801;53.224;6.552;2022-10-16T17:06:12;12.50;99.90
51725;DHT22;37801;53.224;6.552;2022-10-16T17:08:40;12.50;99.90
51725;DHT22;37801;53.224;6.552;2022-10-16T17:11:06;12.40;99.90
51725;DHT22;37801;53.224;6.552;2022-10-16T17:13:33;12.40;99.90
51725;DHT22;37801;53.224;6.552;2022-10-16T17:16:04;12.30;99.90
51725;DHT22;37801;53.224;6.552;2022-10-16T17:18:31;12.30;99.90
51725;DHT22;37801;53.224;6.552;2022-10-16T17:21:06;12.30;99.90
51725;DHT22;37801;53.224;6.552;2022-10-16T17:23:33;12.30;99.90
51725;DHT22;37801;53.224;6.552;2022-10-16T17:26:12;12.20;99.90